Time;durP1;ratioP1;P1;durP2;ratioP2;P2;SDS_P1;SDS_P2;PMS_P1;PMS_P2;Temp;Humidity;BMP_temperature;BMP_pressure;BME280_temperature;BME280_humidity;BME280_pressure;Samples;Min_cycle;Max_cycle;Signal;HPM_P1;HPM_P2
2024/01/03 00:00:30;;;;;;;0.40;0.40;;;;;;;2.78;100.00;96725.41;5003915;28;20061;-65
2024/01/03 00:02:57;;;;;;;0.30;0.30;;;;;;;2.85;100.00;96720.22;5006740;28;20109;-66
2024/01/03 00:05:28;;;;;;;0.40;0.40;;;;;;;2.95;100.00;96712.47;5006984;28;20057;-65
2024/01/03 00:07:55;;;;;;;0.30;0.30;;;;;;;2.93;100.00;96717.44;5007185;28;20049;-64
2024/01/03 00:10:55;;;;;;;0.40;0.40;;;;;;;2.99;100.00;96710.66;5006947;28;20080;-65
2024/01/03 00:13:33;;;;;;;0.40;0.40;;;;;;;3.05;100.00;96719.50;5004428;28;20065;-65
2024/01/03 00:16:00;;;;;;;0.40;0.40;;;;;;;3.01;100.00;96724.00;5021681;28;20049;-66
2024/01/03 00:18:35;;;;;;;0.30;0.30;;;;;;;3.06;100.00;96712.88;5006601;28;20216;-66
2024/01/03 00:21:03;;;;;;;0.38;0.38;;;;;;;2.63;100.00;96668.53;5005206;28;20140;-65
2024/01/03 00:23:47;;;;;;;0.40;0.40;;;;;;;2.85;100.00;96710.09;5006721;28;20061;-65
2024/01/03 00:26:14;;;;;;;0.30;0.30;;;;;;;2.79;100.00;96707.84;5006815;28;20054;-66
2024/01/03 00:28:41;;;;;;;0.30;0.30;;;;;;;2.88;100.00;96698.47;5006437;28;20528;-65
2024/01/03 00:31:09;;;;;;;0.40;0.40;;;;;;;2.88;100.00;96706.69;5006613;28;20046;-64
2024/01/03 00:33:41;;;;;;;0.30;0.30;;;;;;;2.41;100.00;96644.19;5006651;28;20064;-65
2024/01/03 00:36:09;;;;;;;0.40;0.40;;;;;;;2.85;100.00;96714.75;5006509;28;20056;-66
2024/01/03 00:38:38;;;;;;;0.40;0.40;;;;;;;2.94;100.00;96726.47;5006603;28;20451;-65
2024/01/03 00:41:08;;;;;;;0.40;0.40;;;;;;;2.45;100.00;96637.72;5006340;28;20513;-65
2024/01/03 00:43:36;;;;;;;0.40;0.40;;;;;;;2.85;100.00;96722.94;5006043;28;20054;-65
2024/01/03 00:46:03;;;;;;;0.30;0.30;;;;;;;1.74;100.00;96632.34;5006176;28;20551;-66
2024/01/03 00:48:31;;;;;;;0.32;0.32;;;;;;;1.98;100.00;96643.50;5006195;28;20444;-66
2024/01/03 00:50:59;;;;;;;0.30;0.30;;;;;;;2.70;100.00;96734.44;5005885;28;20140;-65
2024/01/03 00:53:26;;;;;;;0.40;0.40;;;;;;;2.54;100.00;96722.44;5004929;28;20129;-65
2024/01/03 00:55:53;;;;;;;0.40;0.40;;;;;;;2.80;100.00;96706.72;5020895;28;20058;-65
2024/01/03 00:58:20;;;;;;;0.40;0.40;;;;;;;2.86;100.00;96710.91;5006158;28;20073;-65
2024/01/03 01:00:48;;;;;;;0.40;0.40;;;;;;;2.59;100.00;96645.72;5006207;28;20050;-66
2024/01/03 01:03:15;;;;;;;0.30;0.30;;;;;;;2.84;100.00;96696.75;5005696;28;20483;-65
2024/01/03 01:05:43;;;;;;;0.40;0.40;;;;;;;2.30;100.00;96634.75;5005982;28;20145;-65
2024/01/03 01:08:10;;;;;;;0.40;0.40;;;;;;;2.89;100.00;96699.28;5006297;28;20045;-65
2024/01/03 01:10:37;;;;;;;0.40;0.40;;;;;;;2.92;100.00;96704.09;5005692;28;20533;-65
2024/01/03 01:13:03;;;;;;;0.35;0.35;;;;;;;2.93;100.00;96722.09;5004952;28;20064;-65
2024/01/03 01:15:30;;;;;;;0.40;0.40;;;;;;;2.33;100.00;96609.50;5005692;28;20053;-66
2024/01/03 01:17:57;;;;;;;0.30;0.30;;;;;;;2.95;100.00;96703.44;5005753;28;20077;-65
2024/01/03 01:20:24;;;;;;;0.40;0.40;;;;;;;2.97;100.00;96701.19;5005666;28;20053;-65
2024/01/03 01:22:50;;;;;;;0.40;0.40;;;;;;;2.90;100.00;96698.16;5005456;28;20509;-65
2024/01/03 01:25:17;;;;;;;0.40;0.40;;;;;;;2.58;100.00;96705.06;5005809;28;20060;-65
2024/01/03 01:27:44;;;;;;;0.30;0.30;;;;;;;1.67;100.00;96629.28;5005304;28;20049;-65
2024/01/03 01:30:11;;;;;;;0.30;0.30;;;;;;;2.18;100.00;96684.59;5004876;28;20065;-64
2024/01/03 01:32:38;;;;;;;0.35;0.35;;;;;;;2.19;100.00;96701.78;5005194;28;20144;-64
2024/01/03 01:35:05;;;;;;;0.30;0.30;;;;;;;1.97;100.00;96710.19;5005326;28;20496;-65
2024/01/03 01:37:32;;;;;;;0.30;0.30;;;;;;;2.17;100.00;96706.78;5003513;28;20049;-65
2024/01/03 01:39:59;;;;;;;0.40;0.40;;;;;;;-1.11;100.00;96169.22;5005135;28;20077;-65
2024/01/03 01:42:27;;;;;;;0.40;0.40;;;;;;;2.40;100.00;96698.03;5005226;28;20053;-65
2024/01/03 01:44:54;;;;;;;0.40;0.40;;;;;;;1.76;100.00;96616.41;4986049;28;20064;-66
2024/01/03 01:47:21;;;;;;;0.30;0.30;;;;;;;2.45;100.00;96699.81;4985068;28;20058;-65
2024/01/03 01:49:48;;;;;;;0.40;0.40;;;;;;;1.67;100.00;96585.63;5000425;28;20054;-66
2024/01/03 01:52:17;;;;;;;0.30;0.30;;;;;;;1.79;100.00;96597.47;4985584;28;20046;-65
2024/01/03 01:54:43;;;;;;;0.30;0.30;;;;;;;2.37;100.00;96687.75;5000243;28;20914;-65
2024/01/03 01:57:12;;;;;;;0.30;0.30;;;;;;;2.48;100.00;96693.69;4983705;28;20054;-65
2024/01/03 01:59:41;;;;;;;0.30;0.30;;;;;;;2.45;100.00;96686.13;4985688;28;20882;-65
2024/01/03 02:02:10;;;;;;;0.38;0.38;;;;;;;2.61;100.00;96698.94;4991766;28;20052;-65
2024/01/03 02:04:37;;;;;;;0.40;0.40;;;;;;;0.72;100.00;96396.00;5019469;28;20157;-64
2024/01/03 02:07:05;;;;;;;0.40;0.40;;;;;;;2.23;100.00;96626.28;5019692;28;20442;-65
2024/01/03 02:09:32;;;;;;;0.35;0.35;;;;;;;1.50;100.00;96570.88;5004517;28;20056;-65
2024/01/03 02:11:59;;;;;;;0.40;0.40;;;;;;;1.86;100.00;96692.53;5004596;28;20460;-64
2024/01/03 02:14:26;;;;;;;0.38;0.38;;;;;;;1.81;100.00;96689.97;5004672;28;20196;-65
2024/01/03 02:16:53;;;;;;;0.30;0.30;;;;;;;2.10;100.00;96670.97;5004308;28;20431;-65
2024/01/03 02:19:19;;;;;;;0.30;0.30;;;;;;;2.19;100.00;96678.03;5019018;28;20049;-64
2024/01/03 02:21:46;;;;;;;0.30;0.30;;;;;;;2.03;100.00;96605.91;5004427;28;20470;-66
2024/01/03 02:24:13;;;;;;;0.30;0.30;;;;;;;1.70;100.00;96678.59;5004953;28;20141;-65
2024/01/03 02:26:40;;;;;;;0.30;0.30;;;;;;;1.00;100.00;96632.50;5004487;28;20053;-66
2024/01/03 02:29:07;;;;;;;0.30;0.30;;;;;;;1.40;100.00;96680.38;5005279;28;20056;-65
2024/01/03 02:31:33;;;;;;;0.30;0.30;;;;;;;1.67;100.00;96689.34;5004375;28;20061;-65
2024/01/03 02:34:00;;;;;;;0.30;0.30;;;;;;;1.84;100.00;96656.56;5004195;28;20496;-65
2024/01/03 02:36:27;;;;;;;0.30;0.30;;;;;;;1.71;100.00;96619.34;5004171;28;20145;-66
2024/01/03 02:38:56;;;;;;;0.30;0.30;;;;;;;2.06;100.00;96680.94;5004751;28;20060;-66
2024/01/03 02:41:23;;;;;;;0.30;0.30;;;;;;;2.05;100.00;96663.75;5019247;28;20573;-66
2024/01/03 02:43:50;;;;;;;0.30;0.30;;;;;;;2.34;100.00;96679.44;5004518;28;20050;-65
2024/01/03 02:46:18;;;;;;;0.30;0.30;;;;;;;0.84;100.00;96503.25;5003989;28;20064;-65
2024/01/03 02:48:45;;;;;;;0.30;0.30;;;;;;;1.91;100.00;96695.09;5004363;28;20050;-66
2024/01/03 02:51:22;;;;;;;0.30;0.30;;;;;;;1.92;100.00;96691.25;5003948;28;20480;-65
2024/01/03 02:53:49;;;;;;;0.30;0.30;;;;;;;2.12;100.00;96679.66;5004386;28;20053;-65
2024/01/03 02:56:17;;;;;;;0.40;0.40;;;;;;;1.41;100.00;96611.03;5004256;28;20850;-65
2024/01/03 02:58:44;;;;;;;0.30;0.30;;;;;;;1.82;100.00;96594.09;5004511;28;20638;-66
2024/01/03 03:01:11;;;;;;;0.30;0.30;;;;;;;1.80;100.00;96590.09;5003823;28;20054;-66
2024/01/03 03:03:37;;;;;;;0.32;0.32;;;;;;;2.45;100.00;96669.75;5002174;28;20065;-66
2024/01/03 03:06:04;;;;;;;0.30;0.30;;;;;;;2.42;100.00;96627.44;5003402;28;20069;-66
2024/01/03 03:08:32;;;;;;;0.40;0.40;;;;;;;2.06;100.00;96577.13;5004145;28;20495;-66
2024/01/03 03:10:59;;;;;;;0.30;0.30;;;;;;;1.88;100.00;96562.75;5018573;28;20141;-70
2024/01/03 03:13:27;;;;;;;0.40;0.40;;;;;;;2.69;99.61;96613.34;5002542;28;20050;-66
2024/01/03 03:15:54;;;;;;;0.40;0.40;;;;;;;1.63;99.09;96470.03;5004138;28;20564;-69
2024/01/03 03:18:21;;;;;;;0.40;0.40;;;;;;;0.96;98.94;96328.94;5019039;28;20116;-69
2024/01/03 03:20:48;;;;;;;0.40;0.40;;;;;;;3.01;98.93;96641.94;5003780;28;20061;-66
2024/01/03 03:23:15;;;;;;;0.40;0.40;;;;;;;2.14;98.78;96536.16;5003493;28;20064;-67
2024/01/03 03:25:42;;;;;;;0.30;0.30;;;;;;;0.71;100.00;96444.25;5003384;28;20060;-68
2024/01/03 03:28:09;;;;;;;0.40;0.40;;;;;;;1.66;100.00;96600.41;5003840;28;20049;-67
2024/01/03 03:30:37;;;;;;;0.30;0.30;;;;;;;2.26;100.00;96652.94;5018850;28;20085;-69
2024/01/03 03:33:04;;;;;;;0.30;0.30;;;;;;;2.08;100.00;96589.34;5003045;28;20157;-65
2024/01/03 03:35:31;;;;;;;0.30;0.30;;;;;;;2.38;100.00;96628.44;5004461;28;20448;-66
2024/01/03 03:37:58;;;;;;;0.30;0.30;;;;;;;2.58;100.00;96633.16;5022193;28;20046;-66
2024/01/03 03:40:24;;;;;;;0.30;0.30;;;;;;;2.40;100.00;96588.72;5007442;28;20054;-66
2024/01/03 03:42:52;;;;;;;0.30;0.30;;;;;;;2.50;100.00;96620.34;5007078;28;20050;-66
2024/01/03 03:45:19;;;;;;;0.30;0.30;;;;;;;2.67;100.00;96625.75;5007110;28;20517;-66
2024/01/03 03:47:47;;;;;;;0.30;0.30;;;;;;;2.74;100.00;96647.88;5007639;28;20046;-65
2024/01/03 03:50:14;;;;;;;0.40;0.40;;;;;;;2.68;100.00;96632.81;5007425;28;20561;-63
2024/01/03 03:52:41;;;;;;;0.40;0.40;;;;;;;2.86;99.87;96639.78;5007324;28;20127;-66
2024/01/03 03:55:08;;;;;;;0.40;0.40;;;;;;;2.68;99.56;96643.75;5007128;28;20193;-66
2024/01/03 03:57:35;;;;;;;0.38;0.38;;;;;;;2.53;100.00;96630.66;5007316;28;20053;-66
2024/01/03 04:00:05;;;;;;;0.30;0.30;;;;;;;1.85;100.00;96582.50;5006933;28;20054;-66
2024/01/03 04:02:32;;;;;;;0.40;0.40;;;;;;;2.02;100.00;96608.97;4995881;28;20120;-65
2024/01/03 04:04:59;;;;;;;0.30;0.30;;;;;;;1.68;100.00;96565.38;5006682;28;20066;-65
2024/01/03 04:07:28;;;;;;;0.30;0.30;;;;;;;2.47;100.00;96649.13;5007340;28;20115;-66
2024/01/03 04:09:55;;;;;;;0.40;0.40;;;;;;;2.48;100.00;96649.94;5007397;28;20444;-64
2024/01/03 04:12:21;;;;;;;0.40;0.40;;;;;;;2.14;100.00;96628.19;5007462;28;20058;-68
2024/01/03 04:14:48;;;;;;;0.40;0.40;;;;;;;2.38;100.00;96612.03;5022554;28;20054;-63
2024/01/03 04:17:16;;;;;;;0.30;0.30;;;;;;;2.43;100.00;96615.41;5006706;28;20464;-66
2024/01/03 04:19:42;;;;;;;0.32;0.32;;;;;;;2.42;100.00;96640.34;5005583;28;20079;-65
2024/01/03 04:22:09;;;;;;;0.30;0.30;;;;;;;2.43;100.00;96647.41;5006586;28;20521;-66
2024/01/03 04:24:36;;;;;;;0.35;0.35;;;;;;;1.24;100.00;96485.56;5006943;28;20058;-66
2024/01/03 04:27:04;;;;;;;0.30;0.30;;;;;;;2.17;100.00;96589.31;5005117;28;20053;-67
2024/01/03 04:29:30;;;;;;;0.40;0.40;;;;;;;2.29;100.00;96635.88;5022043;28;20757;-65
2024/01/03 04:31:58;;;;;;;0.40;0.40;;;;;;;2.69;100.00;96628.94;5006415;28;20141;-65
2024/01/03 04:34:24;;;;;;;0.40;0.40;;;;;;;2.25;100.00;96525.63;5006659;28;20066;-66
2024/01/03 04:36:52;;;;;;;0.30;0.30;;;;;;;1.34;99.28;96414.28;5005164;28;20058;-65
2024/01/03 04:39:19;;;;;;;0.40;0.40;;;;;;;2.32;98.94;96534.13;5006374;28;20648;-66
2024/01/03 04:41:45;;;;;;;0.40;0.40;;;;;;;0.08;98.67;96185.47;5006308;28;20057;-66
2024/01/03 04:44:12;;;;;;;0.30;0.30;;;;;;;2.77;99.63;96619.88;5006647;28;20065;-65
2024/01/03 04:46:39;;;;;;;0.32;0.32;;;;;;;2.81;99.65;96607.94;5005839;28;20057;-67
2024/01/03 04:49:06;;;;;;;0.30;0.30;;;;;;;2.82;100.00;96600.53;5005530;28;20085;-67
2024/01/03 04:51:33;;;;;;;0.40;0.40;;;;;;;2.69;99.51;96574.25;5005987;28;20049;-65
2024/01/03 04:54:00;;;;;;;0.40;0.40;;;;;;;3.07;97.90;96613.25;4991422;28;20046;-66
2024/01/03 04:56:29;;;;;;;0.30;0.30;;;;;;;2.65;99.51;96606.13;5005928;28;20760;-66
2024/01/03 04:58:56;;;;;;;0.30;0.30;;;;;;;2.40;99.01;96539.53;5006281;28;20065;-66
2024/01/03 05:01:23;;;;;;;0.30;0.30;;;;;;;2.57;98.52;96604.22;5020919;28;20440;-66
2024/01/03 05:03:50;;;;;;;0.30;0.30;;;;;;;2.05;100.00;96602.84;5005757;28;20061;-66
2024/01/03 05:06:17;;;;;;;0.40;0.40;;;;;;;2.34;100.00;96605.66;5005953;28;20066;-66
2024/01/03 05:08:44;;;;;;;0.30;0.30;;;;;;;2.25;100.00;96588.47;5006114;28;20104;-66
2024/01/03 05:11:11;;;;;;;0.40;0.40;;;;;;;1.97;100.00;96540.88;5005977;28;20077;-65
2024/01/03 05:13:42;;;;;;;0.30;0.30;;;;;;;2.56;100.00;96629.97;5005925;28;20056;-66
2024/01/03 05:16:09;;;;;;;0.38;0.38;;;;;;;2.22;98.78;96548.16;5005672;28;20483;-66
2024/01/03 05:18:37;;;;;;;0.38;0.38;;;;;;;2.50;98.86;96610.22;5005695;28;20046;-66
2024/01/03 05:21:06;;;;;;;0.40;0.40;;;;;;;2.48;100.00;96596.06;5020014;28;20054;-65
2024/01/03 05:23:33;;;;;;;0.30;0.30;;;;;;;2.33;100.00;96554.84;4984750;28;20049;-66
2024/01/03 05:26:00;;;;;;;0.30;0.30;;;;;;;2.24;100.00;96529.50;5014398;28;20065;-66
2024/01/03 05:28:26;;;;;;;0.30;0.30;;;;;;;2.82;100.00;96611.47;5005551;28;20574;-65
2024/01/03 05:30:53;;;;;;;0.40;0.40;;;;;;;2.77;100.00;96598.81;5020344;28;20592;-66
2024/01/03 05:33:20;;;;;;;0.40;0.40;;;;;;;2.23;100.00;96522.44;5005523;28;20112;-66
2024/01/03 05:35:47;;;;;;;0.32;0.32;;;;;;;2.90;100.00;96602.44;5005012;28;20323;-66
2024/01/03 05:38:14;;;;;;;0.30;0.30;;;;;;;2.25;100.00;96607.59;5005275;28;20111;-66
2024/01/03 05:40:41;;;;;;;0.30;0.30;;;;;;;2.05;100.00;96597.41;5020285;28;20058;-66
2024/01/03 05:43:08;;;;;;;0.30;0.30;;;;;;;2.44;100.00;96632.59;5020411;28;20128;-65
2024/01/03 05:45:35;;;;;;;0.30;0.30;;;;;;;2.34;100.00;96619.31;5005081;28;20057;-65
2024/01/03 05:48:02;;;;;;;0.30;0.30;;;;;;;2.30;100.00;96615.63;5004792;28;20503;-65
2024/01/03 05:50:29;;;;;;;0.30;0.30;;;;;;;1.89;100.00;96530.78;5004367;28;20116;-67
2024/01/03 05:52:56;;;;;;;0.32;0.32;;;;;;;2.61;100.00;96632.50;4985498;28;20073;-64
2024/01/03 05:55:23;;;;;;;0.35;0.35;;;;;;;2.21;100.00;96573.88;4998160;28;20060;-63
2024/01/03 05:57:49;;;;;;;0.30;0.30;;;;;;;2.29;100.00;96570.31;5003971;28;20571;-65
2024/01/03 06:00:16;;;;;;;0.30;0.30;;;;;;;2.81;100.00;96609.91;5002849;28;20530;-62
2024/01/03 06:02:43;;;;;;;0.40;0.40;;;;;;;2.89;100.00;96611.78;5002087;28;20076;-64
2024/01/03 06:05:12;;;;;;;0.32;0.32;;;;;;;3.01;100.00;96614.59;5003862;28;20492;-62
2024/01/03 06:07:39;;;;;;;0.40;0.40;;;;;;;3.01;100.00;96653.69;5003549;28;20174;-63
2024/01/03 06:10:06;;;;;;;0.30;0.30;;;;;;;2.57;100.00;96536.72;5003353;28;20061;-63
2024/01/03 06:12:34;;;;;;;0.30;0.30;;;;;;;2.09;100.00;96439.91;5018836;28;20497;-63
2024/01/03 06:15:01;;;;;;;0.30;0.30;;;;;;;3.20;100.00;96608.66;5004359;28;20053;-64
2024/01/03 06:17:28;;;;;;;0.40;0.40;;;;;;;3.19;100.00;96596.91;5004821;28;20123;-64
2024/01/03 06:19:55;;;;;;;0.40;0.40;;;;;;;3.18;99.14;96598.03;5004696;28;20065;-64
2024/01/03 06:22:22;;;;;;;0.30;0.30;;;;;;;3.24;97.36;96613.13;5004588;28;20050;-63
2024/01/03 06:24:48;;;;;;;0.40;0.40;;;;;;;3.05;98.67;96615.53;5005066;28;20120;-62
2024/01/03 06:27:15;;;;;;;0.40;0.40;;;;;;;3.13;99.35;96636.53;5004599;28;20072;-63
2024/01/03 06:29:42;;;;;;;0.30;0.30;;;;;;;3.11;99.46;96636.09;5004748;28;20068;-64
2024/01/03 06:32:11;;;;;;;0.30;0.30;;;;;;;3.31;98.36;96645.41;5004432;28;20081;-63
2024/01/03 06:34:38;;;;;;;0.40;0.40;;;;;;;3.32;98.35;96647.03;5004324;28;20060;-64
2024/01/03 06:37:05;;;;;;;0.30;0.30;;;;;;;3.33;98.41;96709.66;4991428;28;20145;-67
2024/01/03 06:39:32;;;;;;;0.30;0.30;;;;;;;2.87;98.49;96548.41;4998123;28;20257;-65
2024/01/03 06:41:59;;;;;;;0.40;0.40;;;;;;;3.48;98.88;96632.41;5003274;28;20100;-69
2024/01/03 06:44:26;;;;;;;0.40;0.40;;;;;;;2.87;98.94;96534.72;5002338;28;20118;-63
2024/01/03 06:46:54;;;;;;;0.40;0.40;;;;;;;3.25;98.96;96587.38;5002750;28;20626;-59
2024/01/03 06:49:21;;;;;;;0.40;0.40;;;;;;;3.68;98.74;96628.88;5019173;28;20420;-62
2024/01/03 06:51:48;;;;;;;0.40;0.40;;;;;;;3.85;98.09;96625.97;5009562;28;20402;-64
2024/01/03 06:54:15;;;;;;;0.40;0.40;;;;;;;3.84;97.22;96620.81;5003816;28;20725;-61
2024/01/03 06:56:42;;;;;;;0.40;0.40;;;;;;;3.79;96.31;96635.53;5003626;28;20108;-64
2024/01/03 06:59:09;;;;;;;0.40;0.40;;;;;;;2.23;96.89;96385.84;5004141;28;20164;-64
2024/01/03 07:01:37;;;;;;;0.40;0.40;;;;;;;3.40;97.50;96627.81;5003585;28;20049;-63
2024/01/03 07:04:04;;;;;;;0.40;0.40;;;;;;;3.64;98.05;96625.19;5018454;28;20065;-62
2024/01/03 07:06:31;;;;;;;0.40;0.40;;;;;;;1.03;97.67;96179.28;4957444;28;20059;-59
2024/01/03 07:08:57;;;;;;;0.40;0.40;;;;;;;3.67;95.42;96538.81;5022820;28;20086;-60
2024/01/03 07:11:24;;;;;;;0.40;0.40;;;;;;;4.25;94.41;96629.69;5005724;28;20050;-60
2024/01/03 07:13:51;;;;;;;0.40;0.40;;;;;;;2.77;99.95;96587.06;5007888;28;20111;-65
2024/01/03 07:16:18;;;;;;;0.30;0.30;;;;;;;2.77;100.00;96628.88;5005752;28;20053;-60
2024/01/03 07:18:45;;;;;;;0.40;0.40;;;;;;;3.08;100.00;96625.81;5007160;28;20527;-65
2024/01/03 07:21:12;;;;;;;0.30;0.30;;;;;;;2.39;100.00;96532.47;5020846;28;20046;-67
2024/01/03 07:23:39;;;;;;;0.35;0.35;;;;;;;3.11;100.00;96593.09;5011205;28;20052;-65
2024/01/03 07:26:06;;;;;;;0.40;0.40;;;;;;;2.65;100.00;96491.31;5015637;28;20082;-61
2024/01/03 07:28:33;;;;;;;0.40;0.40;;;;;;;3.58;100.00;96609.28;5022057;28;20061;-64
2024/01/03 07:31:00;;;;;;;0.40;0.40;;;;;;;2.96;100.00;96565.53;5009949;28;20048;-61
2024/01/03 07:33:27;;;;;;;0.40;0.40;;;;;;;3.45;100.00;96608.44;5006610;28;20163;-66
2024/01/03 07:35:54;;;;;;;0.40;0.40;;;;;;;3.90;99.76;96609.31;5006875;28;20058;-61
2024/01/03 07:38:21;;;;;;;0.40;0.40;;;;;;;2.82;98.47;96403.66;5002258;28;20050;-60
2024/01/03 07:40:47;;;;;;;0.40;0.40;;;;;;;4.17;96.65;96608.66;5016930;28;20053;-60
2024/01/03 07:43:14;;;;;;;0.43;0.43;;;;;;;4.05;95.06;96562.06;5006278;28;20051;-62
2024/01/03 07:45:41;;;;;;;0.50;0.50;;;;;;;2.89;93.65;96360.16;5006157;28;20875;-61
2024/01/03 07:48:08;;;;;;;0.43;0.43;;;;;;;3.99;94.86;96530.56;5006735;28;20054;-69
2024/01/03 07:50:35;;;;;;;0.40;0.40;;;;;;;3.93;94.95;96490.84;5006550;28;20580;-60
2024/01/03 07:53:02;;;;;;;0.43;0.43;;;;;;;4.47;94.07;96557.97;5006911;28;20427;-61
2024/01/03 07:55:29;;;;;;;0.50;0.50;;;;;;;4.73;93.41;96581.53;5006767;28;20058;-58
2024/01/03 07:57:56;;;;;;;0.50;0.50;;;;;;;3.88;92.18;96429.97;5007046;28;20053;-67
2024/01/03 08:00:23;;;;;;;0.50;0.50;;;;;;;5.01;93.41;96593.41;5007423;28;20049;-62
2024/01/03 08:02:50;;;;;;;0.40;0.40;;;;;;;5.03;93.61;96602.06;5006781;28;20049;-66
2024/01/03 08:05:17;;;;;;;0.40;0.40;;;;;;;5.12;93.32;96594.50;5006664;28;20057;-64
2024/01/03 08:07:44;;;;;;;0.50;0.50;;;;;;;4.85;92.96;96529.38;5004256;28;20480;-67
2024/01/03 08:10:11;;;;;;;0.50;0.50;;;;;;;4.80;92.27;96521.38;5006462;28;20523;-67
2024/01/03 08:12:37;;;;;;;0.50;0.50;;;;;;;5.40;91.26;96617.31;5021409;28;20323;-63
2024/01/03 08:15:05;;;;;;;0.50;0.50;;;;;;;5.39;90.84;96599.25;5007091;28;20045;-63
2024/01/03 08:17:32;;;;;;;0.50;0.50;;;;;;;5.35;90.93;96592.84;5006502;28;20145;-63
2024/01/03 08:19:59;;;;;;;0.50;0.50;;;;;;;5.33;90.31;96600.63;5006635;28;20050;-62
2024/01/03 08:22:26;;;;;;;0.50;0.50;;;;;;;5.24;90.00;96580.75;5005805;28;20143;-62
2024/01/03 08:24:53;;;;;;;0.50;0.50;;;;;;;5.10;90.03;96559.19;5006635;28;20064;-66
2024/01/03 08:27:20;;;;;;;0.40;0.40;;;;;;;5.42;91.72;96587.56;5006244;28;20080;-59
2024/01/03 08:29:47;;;;;;;0.50;0.50;;;;;;;5.56;92.21;96571.50;5005941;28;20057;-59
2024/01/03 08:32:15;;;;;;;0.60;0.60;;;;;;;5.72;91.50;96586.09;5005804;28;20065;-62
2024/01/03 08:34:45;;;;;;;0.50;0.50;;;;;;;5.38;90.61;96532.53;5005326;28;20566;-65
2024/01/03 08:37:12;;;;;;;0.50;0.50;;;;;;;5.74;90.97;96594.75;5005898;28;20064;-66
2024/01/03 08:39:39;;;;;;;0.50;0.50;;;;;;;5.28;93.53;96592.66;5006273;28;20137;-66
2024/01/03 08:42:06;;;;;;;0.50;0.50;;;;;;;5.19;95.27;96586.47;5005256;28;20049;-65
2024/01/03 08:44:33;;;;;;;0.50;0.50;;;;;;;5.42;94.34;96576.59;5006193;28;20105;-66
2024/01/03 08:47:00;;;;;;;0.50;0.50;;;;;;;5.38;93.60;96543.53;5005850;28;20523;-62
2024/01/03 08:49:26;;;;;;;0.50;0.50;;;;;;;5.63;93.31;96582.66;5004804;28;20061;-66
2024/01/03 08:51:55;;;;;;;0.50;0.50;;;;;;;5.55;93.82;96550.66;5005568;28;20081;-60
2024/01/03 08:54:24;;;;;;;0.50;0.50;;;;;;;3.15;93.30;96154.72;5005643;28;20057;-67
2024/01/03 08:56:51;;;;;;;0.50;0.50;;;;;;;5.49;94.91;96494.38;5005286;28;20092;-58
2024/01/03 08:59:18;;;;;;;0.60;0.60;;;;;;;6.04;95.38;96543.78;5005682;28;20058;-60
2024/01/03 09:01:45;;;;;;;0.55;0.55;;;;;;;6.12;94.46;96546.38;5020079;28;20330;-59
2024/01/03 09:04:11;;;;;;;0.50;0.50;;;;;;;5.98;92.87;96499.28;5002540;28;20058;-59
2024/01/03 09:06:38;;;;;;;0.57;0.57;;;;;;;6.38;91.83;96547.81;4995043;28;20081;-60
2024/01/03 09:09:05;;;;;;;0.55;0.55;;;;;;;5.68;93.04;96431.31;4986194;28;20124;-59
2024/01/03 09:11:34;;;;;;;0.60;0.60;;;;;;;6.45;92.78;96526.75;4985243;28;20054;-62
2024/01/03 09:14:02;;;;;;;0.60;0.60;;;;;;;6.56;91.83;96533.31;4986025;28;20050;-64
2024/01/03 09:16:30;;;;;;;0.50;0.50;;;;;;;6.20;91.06;96472.34;4985537;28;20589;-60
2024/01/03 09:18:57;;;;;;;0.60;0.60;;;;;;;6.26;92.67;96507.44;4986218;28;20054;-59
2024/01/03 09:21:26;;;;;;;0.50;0.50;;;;;;;6.15;92.66;96473.38;4985738;28;20402;-60
2024/01/03 09:23:53;;;;;;;0.60;0.60;;;;;;;6.50;91.75;96518.25;4986112;28;20065;-58
2024/01/03 09:26:22;;;;;;;0.60;0.60;;;;;;;6.50;92.01;96514.69;4985324;28;20058;-60
2024/01/03 09:28:51;;;;;;;0.60;0.60;;;;;;;6.31;92.02;96493.41;4986015;28;20133;-59
2024/01/03 09:31:19;;;;;;;0.60;0.60;;;;;;;6.26;93.31;96518.44;5000291;28;20054;-59
2024/01/03 09:33:46;;;;;;;0.50;0.50;;;;;;;6.00;93.90;96524.47;5000333;28;20065;-63
2024/01/03 09:36:20;;;;;;;0.57;0.57;;;;;;;6.05;93.26;96506.91;4984081;28;20184;-63
2024/01/03 09:38:53;;;;;;;0.50;0.50;;;;;;;6.02;94.46;96502.13;4984802;28;20050;-64
2024/01/03 09:41:22;;;;;;;0.60;0.60;;;;;;;6.01;95.00;96501.31;4984973;28;20125;-64
2024/01/03 09:43:52;;;;;;;0.60;0.60;;;;;;;6.02;94.78;96502.13;4985273;28;20049;-63
2024/01/03 09:46:20;;;;;;;0.50;0.50;;;;;;;6.24;92.82;96509.75;4983439;28;20054;-64
2024/01/03 09:48:48;;;;;;;0.50;0.50;;;;;;;6.17;93.64;96504.06;4984954;28;20445;-60
2024/01/03 09:51:18;;;;;;;0.60;0.60;;;;;;;5.01;95.17;96373.84;4984913;28;20062;-63
2024/01/03 09:53:47;;;;;;;0.60;0.60;;;;;;;5.39;97.23;96429.00;4985314;28;20437;-65
2024/01/03 09:56:14;;;;;;;0.50;0.50;;;;;;;5.66;96.39;96516.03;4984731;28;20539;-63
2024/01/03 09:58:41;;;;;;;0.57;0.57;;;;;;;6.01;97.64;96467.53;4984889;28;20081;-61
2024/01/03 10:01:08;;;;;;;0.50;0.50;;;;;;;6.44;96.29;96485.84;4984595;28;20134;-63
2024/01/03 10:03:35;;;;;;;0.50;0.50;;;;;;;6.56;94.96;96489.28;5009315;28;20053;-63
2024/01/03 10:06:10;;;;;;;0.60;0.60;;;;;;;6.73;93.84;96480.66;5004433;28;20046;-59
2024/01/03 10:09:02;;;;;;;0.52;0.52;;;;;;;6.69;93.62;96477.03;5004820;28;20487;-61
2024/01/03 10:11:30;;;;;;;0.52;0.52;;;;;;;6.81;94.05;96485.16;5019226;28;20147;-59
2024/01/03 10:14:22;;;;;;;0.60;0.60;;;;;;;6.87;93.24;96482.94;5004541;28;20061;-60
2024/01/03 10:16:50;;;;;;;0.60;0.60;;;;;;;6.93;91.29;96482.28;5019522;28;20570;-59
2024/01/03 10:19:18;;;;;;;0.50;0.50;;;;;;;6.69;93.18;96482.53;5003283;28;20060;-63
2024/01/03 10:21:53;;;;;;;0.52;0.52;;;;;;;6.82;91.48;96470.25;5004387;28;20077;-63
2024/01/03 10:24:27;;;;;;;0.60;0.60;;;;;;;6.80;92.06;96478.06;5004693;28;20064;-64
2024/01/03 10:27:06;;;;;;;0.60;0.60;;;;;;;6.10;93.38;96466.19;5003983;28;20476;-59
2024/01/03 10:29:34;;;;;;;0.50;0.50;;;;;;;6.12;96.33;96430.91;5019293;28;20050;-58
2024/01/03 10:32:05;;;;;;;0.60;0.60;;;;;;;6.38;95.85;96452.34;5004211;28;20124;-59
2024/01/03 10:34:31;;;;;;;0.55;0.55;;;;;;;5.46;96.68;96287.19;5004711;28;20131;-63
2024/01/03 10:36:59;;;;;;;0.60;0.60;;;;;;;6.36;96.77;96435.38;5003943;28;20060;-61
2024/01/03 10:39:28;;;;;;;0.60;0.60;;;;;;;6.24;97.77;96421.75;5004250;28;20054;-64
2024/01/03 10:41:56;;;;;;;0.60;0.60;;;;;;;6.42;97.25;96387.19;5003924;28;20054;-64
2024/01/03 10:44:23;;;;;;;0.60;0.60;;;;;;;6.78;96.53;96441.84;5003999;28;20046;-60
2024/01/03 10:46:55;;;;;;;0.60;0.60;;;;;;;6.89;97.92;96426.34;5003127;28;20065;-61
2024/01/03 10:49:23;;;;;;;0.60;0.60;;;;;;;7.22;97.34;96423.88;5004204;28;20061;-62
2024/01/03 10:51:59;;;;;;;0.57;0.57;;;;;;;6.67;96.39;96321.72;5003434;28;20049;-63
2024/01/03 10:54:29;;;;;;;0.65;0.65;;;;;;;7.37;95.76;96403.72;5004049;28;20569;-63
2024/01/03 10:56:56;;;;;;;0.70;0.70;;;;;;;7.44;94.67;96419.59;5003733;28;20045;-61
2024/01/03 10:59:37;;;;;;;0.60;0.60;;;;;;;7.28;96.22;96399.59;5003777;28;20054;-65
2024/01/03 11:02:16;;;;;;;0.63;0.63;;;;;;;6.51;95.95;96332.78;4999004;28;20080;-62
2024/01/03 11:04:55;;;;;;;0.60;0.60;;;;;;;6.45;98.53;96345.22;5001976;28;20057;-61
2024/01/03 11:07:45;;;;;;;0.60;0.60;;;;;;;6.94;97.48;96346.22;4987822;28;20073;-61
2024/01/03 11:10:53;;;;;;;0.60;0.60;;;;;;;7.29;97.46;96403.94;4984168;28;20066;-62
2024/01/03 11:13:28;;;;;;;0.60;0.60;;;;;;;7.37;97.37;96392.69;4984118;28;20057;-63
2024/01/03 11:15:58;;;;;;;0.60;0.60;;;;;;;7.42;98.16;96389.66;4983860;28;20053;-62
2024/01/03 11:18:39;;;;;;;0.63;0.63;;;;;;;7.61;98.17;96386.03;4999200;28;20505;-62
2024/01/03 11:21:30;;;;;;;0.60;0.60;;;;;;;6.62;96.86;96212.75;4998903;28;20082;-59
2024/01/03 11:23:58;;;;;;;0.70;0.70;;;;;;;7.71;97.56;96375.19;4998666;28;20046;-62
2024/01/03 11:26:56;;;;;;;0.70;0.70;;;;;;;5.44;95.79;96008.56;4983401;28;20046;-62
2024/01/03 11:29:35;;;;;;;0.70;0.70;;;;;;;7.69;96.68;96362.94;4999217;28;20058;-62
2024/01/03 11:32:23;;;;;;;0.70;0.70;;;;;;;7.59;96.17;96350.59;4982898;28;20133;-65
2024/01/03 11:34:50;;;;;;;0.70;0.70;;;;;;;7.73;95.84;96350.81;4983565;28;20513;-64
2024/01/03 11:37:20;;;;;;;0.65;0.65;;;;;;;7.74;96.76;96344.13;4983723;28;20051;-63
2024/01/03 11:39:52;;;;;;;0.70;0.70;;;;;;;6.88;97.25;96229.31;4992075;28;20054;-65
2024/01/03 11:42:22;;;;;;;0.70;0.70;;;;;;;7.05;99.56;96252.84;5012985;28;20049;-67